sensor_id;sensor_type;location;lat;lon;timestamp;P1;durP1;ratioP1;P2;durP2;ratioP2
19149;SDS011;9707;49.158;8.632;2023-03-01T00:01:31;10.23;;;7.20;;
19149;SDS011;9707;49.158;8.632;2023-03-01T00:03:58;9.38;;;6.43;;
19149;SDS011;9707;49.158;8.632;2023-03-01T00:06:24;9.45;;;6.82;;
19149;SDS011;9707;49.158;8.632;2023-03-01T00:08:50;8.77;;;7.05;;
19149;SDS011;9707;49.158;8.632;2023-03-01T00:11:22;10.50;;;6.90;;
19149;SDS011;9707;49.158;8.632;2023-03-01T00:13:54;10.82;;;7.13;;
19149;SDS011;9707;49.158;8.632;2023-03-01T00:16:22;10.73;;;7.18;;
19149;SDS011;9707;49.158;8.632;2023-03-01T00:18:51;10.07;;;6.90;;
19149;SDS011;9707;49.158;8.632;2023-03-01T00:21:16;9.35;;;7.05;;
19149;SDS011;9707;49.158;8.632;2023-03-01T00:23:42;9.88;;;7.47;;
19149;SDS011;9707;49.158;8.632;2023-03-01T00:26:09;9.07;;;6.40;;
19149;SDS011;9707;49.158;8.632;2023-03-01T00:28:37;10.55;;;7.55;;
19149;SDS011;9707;49.158;8.632;2023-03-01T00:31:06;9.40;;;6.63;;
19149;SDS011;9707;49.158;8.632;2023-03-01T00:33:33;10.48;;;7.30;;
19149;SDS011;9707;49.158;8.632;2023-03-01T00:35:59;8.85;;;6.70;;
19149;SDS011;9707;49.158;8.632;2023-03-01T00:38:25;10.18;;;7.65;;
19149;SDS011;9707;49.158;8.632;2023-03-01T00:40:50;10.13;;;7.18;;
19149;SDS011;9707;49.158;8.632;2023-03-01T00:43:15;9.13;;;7.38;;
19149;SDS011;9707;49.158;8.632;2023-03-01T00:45:41;11.85;;;7.95;;
19149;SDS011;9707;49.158;8.632;2023-03-01T00:48:06;10.55;;;7.90;;
19149;SDS011;9707;49.158;8.632;2023-03-01T00:50:31;9.95;;;7.40;;
19149;SDS011;9707;49.158;8.632;2023-03-01T00:52:57;10.35;;;7.60;;
19149;SDS011;9707;49.158;8.632;2023-03-01T00:55:22;9.05;;;7.00;;
19149;SDS011;9707;49.158;8.632;2023-03-01T00:57:48;12.60;;;8.80;;
19149;SDS011;9707;49.158;8.632;2023-03-01T01:00:14;10.10;;;7.78;;
19149;SDS011;9707;49.158;8.632;2023-03-01T01:02:40;8.68;;;6.30;;
19149;SDS011;9707;49.158;8.632;2023-03-01T01:05:05;10.63;;;6.95;;
19149;SDS011;9707;49.158;8.632;2023-03-01T01:07:31;8.05;;;5.68;;
19149;SDS011;9707;49.158;8.632;2023-03-01T01:09:56;8.75;;;6.80;;
19149;SDS011;9707;49.158;8.632;2023-03-01T01:12:24;10.35;;;7.22;;
19149;SDS011;9707;49.158;8.632;2023-03-01T01:14:49;7.90;;;6.43;;
19149;SDS011;9707;49.158;8.632;2023-03-01T01:17:17;11.38;;;8.23;;
19149;SDS011;9707;49.158;8.632;2023-03-01T01:19:42;11.18;;;8.02;;
19149;SDS011;9707;49.158;8.632;2023-03-01T01:22:08;9.45;;;7.40;;
19149;SDS011;9707;49.158;8.632;2023-03-01T01:24:33;9.63;;;7.18;;
19149;SDS011;9707;49.158;8.632;2023-03-01T01:26:58;10.50;;;8.10;;
19149;SDS011;9707;49.158;8.632;2023-03-01T01:29:24;11.75;;;8.27;;
19149;SDS011;9707;49.158;8.632;2023-03-01T01:31:49;11.50;;;7.72;;
19149;SDS011;9707;49.158;8.632;2023-03-01T01:34:16;9.32;;;7.65;;
19149;SDS011;9707;49.158;8.632;2023-03-01T01:36:49;9.98;;;7.80;;
19149;SDS011;9707;49.158;8.632;2023-03-01T01:39:16;7.45;;;6.40;;
19149;SDS011;9707;49.158;8.632;2023-03-01T01:41:41;9.68;;;8.20;;
19149;SDS011;9707;49.158;8.632;2023-03-01T01:47:00;11.05;;;7.97;;
19149;SDS011;9707;49.158;8.632;2023-03-01T01:49:39;10.48;;;7.97;;
19149;SDS011;9707;49.158;8.632;2023-03-01T01:54:46;10.82;;;7.85;;
19149;SDS011;9707;49.158;8.632;2023-03-01T01:57:19;9.95;;;8.18;;
19149;SDS011;9707;49.158;8.632;2023-03-01T01:59:52;10.38;;;7.68;;
19149;SDS011;9707;49.158;8.632;2023-03-01T02:02:22;11.20;;;8.55;;
19149;SDS011;9707;49.158;8.632;2023-03-01T02:04:48;11.50;;;8.32;;
19149;SDS011;9707;49.158;8.632;2023-03-01T02:07:19;11.10;;;9.02;;
19149;SDS011;9707;49.158;8.632;2023-03-01T02:09:48;11.70;;;8.23;;
19149;SDS011;9707;49.158;8.632;2023-03-01T02:12:18;12.10;;;8.63;;
19149;SDS011;9707;49.158;8.632;2023-03-01T02:14:46;10.73;;;7.95;;
19149;SDS011;9707;49.158;8.632;2023-03-01T02:17:12;11.60;;;8.77;;
19149;SDS011;9707;49.158;8.632;2023-03-01T02:22:27;10.48;;;8.07;;
19149;SDS011;9707;49.158;8.632;2023-03-01T02:30:23;10.15;;;8.35;;
19149;SDS011;9707;49.158;8.632;2023-03-01T02:32:52;12.23;;;8.68;;
19149;SDS011;9707;49.158;8.632;2023-03-01T02:35:19;11.57;;;8.60;;
19149;SDS011;9707;49.158;8.632;2023-03-01T02:37:45;10.27;;;8.07;;
19149;SDS011;9707;49.158;8.632;2023-03-01T02:40:16;11.50;;;8.13;;
19149;SDS011;9707;49.158;8.632;2023-03-01T02:42:46;11.68;;;8.45;;
19149;SDS011;9707;49.158;8.632;2023-03-01T02:45:18;11.75;;;8.50;;
19149;SDS011;9707;49.158;8.632;2023-03-01T02:47:44;11.75;;;8.40;;
19149;SDS011;9707;49.158;8.632;2023-03-01T02:50:15;10.27;;;8.07;;
19149;SDS011;9707;49.158;8.632;2023-03-01T02:52:53;11.65;;;8.15;;
19149;SDS011;9707;49.158;8.632;2023-03-01T02:55:20;11.00;;;8.35;;
19149;SDS011;9707;49.158;8.632;2023-03-01T02:57:46;10.90;;;7.72;;
19149;SDS011;9707;49.158;8.632;2023-03-01T03:00:19;9.77;;;7.82;;
19149;SDS011;9707;49.158;8.632;2023-03-01T03:02:51;10.90;;;8.25;;
19149;SDS011;9707;49.158;8.632;2023-03-01T03:05:18;10.55;;;8.77;;
19149;SDS011;9707;49.158;8.632;2023-03-01T03:07:46;10.35;;;8.45;;
19149;SDS011;9707;49.158;8.632;2023-03-01T03:10:17;11.15;;;7.72;;
19149;SDS011;9707;49.158;8.632;2023-03-01T03:12:52;13.48;;;8.48;;
19149;SDS011;9707;49.158;8.632;2023-03-01T03:15:23;11.23;;;7.93;;
19149;SDS011;9707;49.158;8.632;2023-03-01T03:17:49;12.05;;;8.07;;
19149;SDS011;9707;49.158;8.632;2023-03-01T03:20:16;11.05;;;8.30;;
19149;SDS011;9707;49.158;8.632;2023-03-01T03:22:46;13.52;;;8.55;;
19149;SDS011;9707;49.158;8.632;2023-03-01T03:25:13;20.17;;;8.82;;
19149;SDS011;9707;49.158;8.632;2023-03-01T03:27:40;9.38;;;8.02;;
19149;SDS011;9707;49.158;8.632;2023-03-01T03:30:09;12.43;;;8.60;;
19149;SDS011;9707;49.158;8.632;2023-03-01T03:32:37;12.02;;;8.55;;
19149;SDS011;9707;49.158;8.632;2023-03-01T03:35:04;11.55;;;8.68;;
19149;SDS011;9707;49.158;8.632;2023-03-01T03:37:35;14.48;;;9.60;;
19149;SDS011;9707;49.158;8.632;2023-03-01T03:40:23;12.85;;;9.15;;
19149;SDS011;9707;49.158;8.632;2023-03-01T03:42:48;9.55;;;8.55;;
19149;SDS011;9707;49.158;8.632;2023-03-01T03:45:15;10.43;;;8.23;;
19149;SDS011;9707;49.158;8.632;2023-03-01T03:47:41;12.75;;;8.73;;
19149;SDS011;9707;49.158;8.632;2023-03-01T03:50:06;12.55;;;9.20;;
19149;SDS011;9707;49.158;8.632;2023-03-01T03:52:32;10.35;;;8.77;;
19149;SDS011;9707;49.158;8.632;2023-03-01T03:54:57;10.27;;;8.07;;
19149;SDS011;9707;49.158;8.632;2023-03-01T03:57:22;10.50;;;8.18;;
19149;SDS011;9707;49.158;8.632;2023-03-01T03:59:48;9.77;;;8.10;;
19149;SDS011;9707;49.158;8.632;2023-03-01T04:02:13;12.10;;;8.40;;
19149;SDS011;9707;49.158;8.632;2023-03-01T04:04:46;10.48;;;7.82;;
19149;SDS011;9707;49.158;8.632;2023-03-01T04:07:14;9.27;;;7.65;;
19149;SDS011;9707;49.158;8.632;2023-03-01T04:09:40;11.40;;;8.43;;
19149;SDS011;9707;49.158;8.632;2023-03-01T04:12:07;10.15;;;7.47;;
19149;SDS011;9707;49.158;8.632;2023-03-01T04:14:33;11.02;;;8.40;;
19149;SDS011;9707;49.158;8.632;2023-03-01T04:16:58;8.65;;;7.63;;
19149;SDS011;9707;49.158;8.632;2023-03-01T04:19:23;9.45;;;8.20;;
19149;SDS011;9707;49.158;8.632;2023-03-01T04:21:48;11.20;;;7.78;;
19149;SDS011;9707;49.158;8.632;2023-03-01T04:24:14;11.07;;;8.25;;
19149;SDS011;9707;49.158;8.632;2023-03-01T04:26:39;10.25;;;7.85;;
19149;SDS011;9707;49.158;8.632;2023-03-01T04:29:04;11.23;;;8.23;;
19149;SDS011;9707;49.158;8.632;2023-03-01T04:31:29;11.82;;;8.73;;
19149;SDS011;9707;49.158;8.632;2023-03-01T04:33:55;11.18;;;8.80;;
19149;SDS011;9707;49.158;8.632;2023-03-01T04:36:22;12.43;;;8.23;;
19149;SDS011;9707;49.158;8.632;2023-03-01T04:38:50;11.70;;;8.68;;
19149;SDS011;9707;49.158;8.632;2023-03-01T04:41:17;10.23;;;8.15;;
19149;SDS011;9707;49.158;8.632;2023-03-01T04:43:43;11.90;;;7.55;;
19149;SDS011;9707;49.158;8.632;2023-03-01T04:46:14;11.05;;;8.10;;
19149;SDS011;9707;49.158;8.632;2023-03-01T04:48:41;11.43;;;8.38;;
19149;SDS011;9707;49.158;8.632;2023-03-01T04:51:08;18.15;;;13.13;;
19149;SDS011;9707;49.158;8.632;2023-03-01T04:53:33;10.45;;;8.13;;
19149;SDS011;9707;49.158;8.632;2023-03-01T04:56:01;12.73;;;8.38;;
19149;SDS011;9707;49.158;8.632;2023-03-01T04:58:27;11.50;;;8.57;;
19149;SDS011;9707;49.158;8.632;2023-03-01T05:00:53;11.70;;;8.23;;
19149;SDS011;9707;49.158;8.632;2023-03-01T05:03:19;10.88;;;8.00;;
19149;SDS011;9707;49.158;8.632;2023-03-01T05:05:47;9.35;;;7.57;;
19149;SDS011;9707;49.158;8.632;2023-03-01T05:08:14;10.52;;;8.00;;
19149;SDS011;9707;49.158;8.632;2023-03-01T05:10:43;11.77;;;8.65;;
19149;SDS011;9707;49.158;8.632;2023-03-01T05:13:16;10.65;;;8.68;;
19149;SDS011;9707;49.158;8.632;2023-03-01T05:15:45;35.22;;;19.58;;
19149;SDS011;9707;49.158;8.632;2023-03-01T05:18:12;17.77;;;12.65;;
19149;SDS011;9707;49.158;8.632;2023-03-01T05:20:38;13.10;;;9.98;;
19149;SDS011;9707;49.158;8.632;2023-03-01T05:23:03;12.68;;;8.88;;
19149;SDS011;9707;49.158;8.632;2023-03-01T05:25:30;13.00;;;8.43;;
19149;SDS011;9707;49.158;8.632;2023-03-01T05:27:58;10.15;;;7.95;;
19149;SDS011;9707;49.158;8.632;2023-03-01T05:30:29;12.85;;;8.38;;
19149;SDS011;9707;49.158;8.632;2023-03-01T05:32:55;11.48;;;8.40;;
19149;SDS011;9707;49.158;8.632;2023-03-01T05:35:21;13.68;;;9.25;;
19149;SDS011;9707;49.158;8.632;2023-03-01T05:37:47;12.05;;;9.07;;
19149;SDS011;9707;49.158;8.632;2023-03-01T05:40:17;15.23;;;8.90;;
19149;SDS011;9707;49.158;8.632;2023-03-01T05:42:48;13.32;;;10.15;;
19149;SDS011;9707;49.158;8.632;2023-03-01T05:45:15;13.75;;;10.13;;
19149;SDS011;9707;49.158;8.632;2023-03-01T05:47:43;12.88;;;9.45;;
19149;SDS011;9707;49.158;8.632;2023-03-01T05:50:13;13.98;;;11.10;;
19149;SDS011;9707;49.158;8.632;2023-03-01T05:52:45;15.05;;;9.75;;
19149;SDS011;9707;49.158;8.632;2023-03-01T05:55:16;15.45;;;10.88;;
19149;SDS011;9707;49.158;8.632;2023-03-01T05:57:42;12.88;;;9.77;;
19149;SDS011;9707;49.158;8.632;2023-03-01T06:00:09;11.60;;;8.95;;
19149;SDS011;9707;49.158;8.632;2023-03-01T06:02:34;12.77;;;9.77;;
19149;SDS011;9707;49.158;8.632;2023-03-01T06:05:00;12.73;;;9.40;;
19149;SDS011;9707;49.158;8.632;2023-03-01T06:07:25;13.90;;;10.23;;
19149;SDS011;9707;49.158;8.632;2023-03-01T06:09:50;14.18;;;9.85;;
19149;SDS011;9707;49.158;8.632;2023-03-01T06:12:16;12.93;;;9.43;;
19149;SDS011;9707;49.158;8.632;2023-03-01T06:14:42;15.45;;;8.25;;
19149;SDS011;9707;49.158;8.632;2023-03-01T06:17:07;13.40;;;9.02;;
19149;SDS011;9707;49.158;8.632;2023-03-01T06:19:32;11.18;;;8.70;;
19149;SDS011;9707;49.158;8.632;2023-03-01T06:21:58;12.25;;;8.48;;
19149;SDS011;9707;49.158;8.632;2023-03-01T06:24:23;13.50;;;9.88;;
19149;SDS011;9707;49.158;8.632;2023-03-01T06:26:48;14.25;;;10.13;;
19149;SDS011;9707;49.158;8.632;2023-03-01T06:29:13;12.18;;;9.80;;
19149;SDS011;9707;49.158;8.632;2023-03-01T06:31:39;10.98;;;8.45;;
19149;SDS011;9707;49.158;8.632;2023-03-01T06:34:04;13.95;;;10.32;;
19149;SDS011;9707;49.158;8.632;2023-03-01T06:36:30;12.23;;;9.60;;
19149;SDS011;9707;49.158;8.632;2023-03-01T06:38:55;11.80;;;8.75;;
19149;SDS011;9707;49.158;8.632;2023-03-01T06:41:20;12.70;;;9.18;;
19149;SDS011;9707;49.158;8.632;2023-03-01T06:43:46;11.30;;;8.55;;
19149;SDS011;9707;49.158;8.632;2023-03-01T06:46:11;14.80;;;9.43;;
19149;SDS011;9707;49.158;8.632;2023-03-01T06:48:36;12.65;;;9.48;;
19149;SDS011;9707;49.158;8.632;2023-03-01T06:51:02;13.82;;;10.20;;
19149;SDS011;9707;49.158;8.632;2023-03-01T06:53:28;14.93;;;9.70;;
19149;SDS011;9707;49.158;8.632;2023-03-01T06:55:54;13.27;;;9.43;;
19149;SDS011;9707;49.158;8.632;2023-03-01T06:58:25;16.00;;;10.80;;
19149;SDS011;9707;49.158;8.632;2023-03-01T07:00:50;15.85;;;11.20;;
19149;SDS011;9707;49.158;8.632;2023-03-01T07:03:15;16.60;;;10.50;;
19149;SDS011;9707;49.158;8.632;2023-03-01T07:05:41;17.52;;;12.00;;
19149;SDS011;9707;49.158;8.632;2023-03-01T07:08:06;15.15;;;11.40;;
19149;SDS011;9707;49.158;8.632;2023-03-01T07:10:31;17.45;;;11.80;;
19149;SDS011;9707;49.158;8.632;2023-03-01T07:12:57;17.60;;;12.27;;
19149;SDS011;9707;49.158;8.632;2023-03-01T07:15:23;17.08;;;12.10;;
19149;SDS011;9707;49.158;8.632;2023-03-01T07:17:50;16.42;;;12.80;;
19149;SDS011;9707;49.158;8.632;2023-03-01T07:20:16;17.02;;;11.73;;
19149;SDS011;9707;49.158;8.632;2023-03-01T07:22:42;19.27;;;11.52;;
19149;SDS011;9707;49.158;8.632;2023-03-01T07:25:08;15.57;;;11.82;;
19149;SDS011;9707;49.158;8.632;2023-03-01T07:27:34;17.27;;;12.18;;
19149;SDS011;9707;49.158;8.632;2023-03-01T07:30:00;18.35;;;12.75;;
19149;SDS011;9707;49.158;8.632;2023-03-01T07:32:25;21.60;;;15.15;;
19149;SDS011;9707;49.158;8.632;2023-03-01T07:34:51;24.40;;;16.40;;
19149;SDS011;9707;49.158;8.632;2023-03-01T07:37:16;23.48;;;13.77;;
19149;SDS011;9707;49.158;8.632;2023-03-01T07:39:41;30.67;;;18.67;;
19149;SDS011;9707;49.158;8.632;2023-03-01T07:42:07;31.77;;;18.13;;
19149;SDS011;9707;49.158;8.632;2023-03-01T07:44:32;26.35;;;15.85;;
19149;SDS011;9707;49.158;8.632;2023-03-01T07:46:59;34.75;;;21.30;;
19149;SDS011;9707;49.158;8.632;2023-03-01T07:49:25;40.75;;;20.50;;
19149;SDS011;9707;49.158;8.632;2023-03-01T07:51:51;12.80;;;8.48;;
19149;SDS011;9707;49.158;8.632;2023-03-01T07:54:16;16.92;;;9.93;;
19149;SDS011;9707;49.158;8.632;2023-03-01T07:56:43;16.25;;;9.90;;
19149;SDS011;9707;49.158;8.632;2023-03-01T07:59:08;18.92;;;12.32;;
19149;SDS011;9707;49.158;8.632;2023-03-01T08:01:34;15.98;;;11.80;;
19149;SDS011;9707;49.158;8.632;2023-03-01T08:03:59;14.05;;;9.45;;
19149;SDS011;9707;49.158;8.632;2023-03-01T08:06:25;15.82;;;12.32;;
19149;SDS011;9707;49.158;8.632;2023-03-01T08:08:50;15.57;;;10.73;;
19149;SDS011;9707;49.158;8.632;2023-03-01T08:11:16;16.50;;;12.20;;
19149;SDS011;9707;49.158;8.632;2023-03-01T08:13:42;14.25;;;10.38;;
19149;SDS011;9707;49.158;8.632;2023-03-01T08:16:10;14.55;;;10.13;;
19149;SDS011;9707;49.158;8.632;2023-03-01T08:18:37;16.23;;;12.02;;
19149;SDS011;9707;49.158;8.632;2023-03-01T08:21:09;13.02;;;9.48;;
19149;SDS011;9707;49.158;8.632;2023-03-01T08:23:36;16.23;;;11.15;;
19149;SDS011;9707;49.158;8.632;2023-03-01T08:26:03;15.45;;;11.95;;
19149;SDS011;9707;49.158;8.632;2023-03-01T08:28:34;15.75;;;11.88;;
19149;SDS011;9707;49.158;8.632;2023-03-01T08:30:59;16.10;;;12.57;;
19149;SDS011;9707;49.158;8.632;2023-03-01T08:33:25;18.35;;;12.32;;
19149;SDS011;9707;49.158;8.632;2023-03-01T08:35:50;17.80;;;13.05;;
19149;SDS011;9707;49.158;8.632;2023-03-01T08:38:15;19.40;;;12.52;;
19149;SDS011;9707;49.158;8.632;2023-03-01T08:40:41;17.23;;;12.07;;
19149;SDS011;9707;49.158;8.632;2023-03-01T08:43:06;18.48;;;12.82;;
19149;SDS011;9707;49.158;8.632;2023-03-01T08:45:31;15.20;;;11.07;;
19149;SDS011;9707;49.158;8.632;2023-03-01T08:47:56;17.92;;;12.13;;
19149;SDS011;9707;49.158;8.632;2023-03-01T08:50:22;18.25;;;13.27;;
19149;SDS011;9707;49.158;8.632;2023-03-01T08:52:49;16.58;;;12.48;;
19149;SDS011;9707;49.158;8.632;2023-03-01T08:55:15;18.40;;;12.10;;
19149;SDS011;9707;49.158;8.632;2023-03-01T08:57:42;14.75;;;8.60;;
19149;SDS011;9707;49.158;8.632;2023-03-01T09:00:07;13.88;;;10.73;;
19149;SDS011;9707;49.158;8.632;2023-03-01T09:02:33;17.00;;;12.30;;
19149;SDS011;9707;49.158;8.632;2023-03-01T09:04:59;18.77;;;13.60;;
19149;SDS011;9707;49.158;8.632;2023-03-01T09:07:25;18.25;;;13.10;;
19149;SDS011;9707;49.158;8.632;2023-03-01T09:09:53;19.98;;;12.25;;
19149;SDS011;9707;49.158;8.632;2023-03-01T09:12:20;18.27;;;13.68;;
19149;SDS011;9707;49.158;8.632;2023-03-01T09:14:45;16.33;;;11.10;;
19149;SDS011;9707;49.158;8.632;2023-03-01T09:17:10;17.45;;;11.68;;
19149;SDS011;9707;49.158;8.632;2023-03-01T09:19:36;26.20;;;14.70;;
19149;SDS011;9707;49.158;8.632;2023-03-01T09:22:02;14.02;;;10.60;;
19149;SDS011;9707;49.158;8.632;2023-03-01T09:24:28;17.27;;;13.52;;
19149;SDS011;9707;49.158;8.632;2023-03-01T09:26:54;15.63;;;10.13;;
19149;SDS011;9707;49.158;8.632;2023-03-01T09:29:20;13.55;;;9.60;;
19149;SDS011;9707;49.158;8.632;2023-03-01T09:31:46;18.60;;;13.13;;
19149;SDS011;9707;49.158;8.632;2023-03-01T09:34:11;17.52;;;12.68;;
19149;SDS011;9707;49.158;8.632;2023-03-01T09:36:38;18.75;;;13.43;;
19149;SDS011;9707;49.158;8.632;2023-03-01T09:39:06;16.77;;;11.90;;
19149;SDS011;9707;49.158;8.632;2023-03-01T09:41:37;18.23;;;13.32;;
19149;SDS011;9707;49.158;8.632;2023-03-01T09:46:53;13.52;;;10.23;;
19149;SDS011;9707;49.158;8.632;2023-03-01T09:49:19;16.60;;;10.77;;
19149;SDS011;9707;49.158;8.632;2023-03-01T09:51:54;19.20;;;14.90;;
19149;SDS011;9707;49.158;8.632;2023-03-01T09:54:22;17.77;;;12.77;;
19149;SDS011;9707;49.158;8.632;2023-03-01T09:57:01;20.17;;;14.25;;
19149;SDS011;9707;49.158;8.632;2023-03-01T10:02:17;17.10;;;12.68;;
19149;SDS011;9707;49.158;8.632;2023-03-01T10:04:50;16.67;;;13.48;;
19149;SDS011;9707;49.158;8.632;2023-03-01T10:09:55;16.95;;;14.15;;
19149;SDS011;9707;49.158;8.632;2023-03-01T10:12:22;18.05;;;13.32;;
19149;SDS011;9707;49.158;8.632;2023-03-01T10:14:53;16.77;;;13.30;;
19149;SDS011;9707;49.158;8.632;2023-03-01T10:20:18;17.88;;;13.77;;
19149;SDS011;9707;49.158;8.632;2023-03-01T10:22:47;18.63;;;14.00;;
19149;SDS011;9707;49.158;8.632;2023-03-01T10:25:31;19.88;;;13.85;;
19149;SDS011;9707;49.158;8.632;2023-03-01T10:28:19;17.95;;;13.20;;
19149;SDS011;9707;49.158;8.632;2023-03-01T10:30:50;18.05;;;13.57;;
19149;SDS011;9707;49.158;8.632;2023-03-01T10:33:17;20.15;;;14.35;;
19149;SDS011;9707;49.158;8.632;2023-03-01T10:35:52;18.08;;;12.35;;
19149;SDS011;9707;49.158;8.632;2023-03-01T10:38:18;19.35;;;13.75;;
19149;SDS011;9707;49.158;8.632;2023-03-01T10:40:55;18.45;;;12.43;;
19149;SDS011;9707;49.158;8.632;2023-03-01T10:43:24;18.27;;;13.88;;
19149;SDS011;9707;49.158;8.632;2023-03-01T10:45:57;18.80;;;13.07;;
19149;SDS011;9707;49.158;8.632;2023-03-01T10:48:23;18.10;;;13.90;;
19149;SDS011;9707;49.158;8.632;2023-03-01T10:56:01;16.10;;;13.52;;
19149;SDS011;9707;49.158;8.632;2023-03-01T10:58:31;18.30;;;13.65;;
19149;SDS011;9707;49.158;8.632;2023-03-01T11:00:59;18.25;;;12.80;;
19149;SDS011;9707;49.158;8.632;2023-03-01T11:03:27;23.35;;;15.85;;
19149;SDS011;9707;49.158;8.632;2023-03-01T11:08:33;18.13;;;14.00;;
19149;SDS011;9707;49.158;8.632;2023-03-01T11:11:05;18.02;;;13.95;;
19149;SDS011;9707;49.158;8.632;2023-03-01T11:13:30;16.75;;;13.27;;
19149;SDS011;9707;49.158;8.632;2023-03-01T11:15:59;19.50;;;14.02;;
19149;SDS011;9707;49.158;8.632;2023-03-01T11:18:27;15.68;;;11.93;;
19149;SDS011;9707;49.158;8.632;2023-03-01T11:20:54;16.23;;;11.13;;
19149;SDS011;9707;49.158;8.632;2023-03-01T11:23:20;15.40;;;10.25;;
19149;SDS011;9707;49.158;8.632;2023-03-01T11:25:53;20.25;;;13.77;;
19149;SDS011;9707;49.158;8.632;2023-03-01T11:28:21;16.98;;;10.90;;
19149;SDS011;9707;49.158;8.632;2023-03-01T11:30:50;17.30;;;12.57;;
19149;SDS011;9707;49.158;8.632;2023-03-01T11:36:00;16.52;;;11.82;;
19149;SDS011;9707;49.158;8.632;2023-03-01T11:38:30;18.45;;;13.48;;
19149;SDS011;9707;49.158;8.632;2023-03-01T11:41:11;14.20;;;8.60;;
19149;SDS011;9707;49.158;8.632;2023-03-01T11:43:51;16.02;;;10.52;;
19149;SDS011;9707;49.158;8.632;2023-03-01T11:57:18;19.25;;;12.65;;
19149;SDS011;9707;49.158;8.632;2023-03-01T12:02:51;15.90;;;12.13;;
19149;SDS011;9707;49.158;8.632;2023-03-01T12:11:18;19.77;;;14.63;;
19149;SDS011;9707;49.158;8.632;2023-03-01T12:16:49;14.30;;;9.55;;
19149;SDS011;9707;49.158;8.632;2023-03-01T12:19:24;16.00;;;11.20;;
19149;SDS011;9707;49.158;8.632;2023-03-01T12:22:03;15.20;;;11.07;;
19149;SDS011;9707;49.158;8.632;2023-03-01T12:25:03;19.27;;;12.63;;
19149;SDS011;9707;49.158;8.632;2023-03-01T12:30:47;18.73;;;13.20;;
19149;SDS011;9707;49.158;8.632;2023-03-01T12:33:57;18.55;;;12.70;;
19149;SDS011;9707;49.158;8.632;2023-03-01T12:36:29;19.67;;;14.18;;
19149;SDS011;9707;49.158;8.632;2023-03-01T12:45:12;17.80;;;13.52;;
19149;SDS011;9707;49.158;8.632;2023-03-01T12:50:21;18.98;;;14.50;;
19149;SDS011;9707;49.158;8.632;2023-03-01T12:52:56;15.82;;;12.70;;
19149;SDS011;9707;49.158;8.632;2023-03-01T12:55:36;18.55;;;14.07;;
19149;SDS011;9707;49.158;8.632;2023-03-01T12:58:15;16.63;;;13.18;;
19149;SDS011;9707;49.158;8.632;2023-03-01T13:01:03;18.52;;;13.63;;
19149;SDS011;9707;49.158;8.632;2023-03-01T13:06:35;17.88;;;12.70;;
19149;SDS011;9707;49.158;8.632;2023-03-01T13:15:28;16.30;;;12.52;;
19149;SDS011;9707;49.158;8.632;2023-03-01T13:17:59;17.63;;;13.88;;
19149;SDS011;9707;49.158;8.632;2023-03-01T13:20:30;17.38;;;12.43;;
19149;SDS011;9707;49.158;8.632;2023-03-01T13:23:39;13.23;;;8.95;;
19149;SDS011;9707;49.158;8.632;2023-03-01T13:31:01;17.77;;;13.52;;
19149;SDS011;9707;49.158;8.632;2023-03-01T13:35:56;16.83;;;12.48;;
19149;SDS011;9707;49.158;8.632;2023-03-01T13:38:36;17.65;;;11.82;;
19149;SDS011;9707;49.158;8.632;2023-03-01T13:44:48;14.02;;;10.52;;
19149;SDS011;9707;49.158;8.632;2023-03-01T13:46:49;14.45;;;10.32;;
19149;SDS011;9707;49.158;8.632;2023-03-01T13:49:17;15.85;;;12.20;;
19149;SDS011;9707;49.158;8.632;2023-03-01T13:51:47;15.75;;;11.65;;
19149;SDS011;9707;49.158;8.632;2023-03-01T13:54:15;14.88;;;11.25;;
19149;SDS011;9707;49.158;8.632;2023-03-01T13:56:45;18.50;;;12.30;;
19149;SDS011;9707;49.158;8.632;2023-03-01T13:59:18;16.23;;;11.60;;
19149;SDS011;9707;49.158;8.632;2023-03-01T14:01:52;15.00;;;9.93;;
19149;SDS011;9707;49.158;8.632;2023-03-01T14:04:27;20.42;;;11.82;;
19149;SDS011;9707;49.158;8.632;2023-03-01T14:09:58;17.90;;;13.65;;
19149;SDS011;9707;49.158;8.632;2023-03-01T14:20:41;14.23;;;9.02;;
19149;SDS011;9707;49.158;8.632;2023-03-01T14:23:14;17.13;;;10.90;;
19149;SDS011;9707;49.158;8.632;2023-03-01T14:25:52;23.15;;;16.55;;
19149;SDS011;9707;49.158;8.632;2023-03-01T14:30:53;34.08;;;19.73;;
19149;SDS011;9707;49.158;8.632;2023-03-01T14:33:27;17.83;;;12.60;;
19149;SDS011;9707;49.158;8.632;2023-03-01T14:36:00;14.88;;;9.73;;
19149;SDS011;9707;49.158;8.632;2023-03-01T14:38:45;20.65;;;13.05;;
19149;SDS011;9707;49.158;8.632;2023-03-01T14:41:18;17.17;;;11.55;;
19149;SDS011;9707;49.158;8.632;2023-03-01T14:43:55;19.00;;;15.13;;
19149;SDS011;9707;49.158;8.632;2023-03-01T14:46:28;13.95;;;10.43;;
19149;SDS011;9707;49.158;8.632;2023-03-01T14:51:30;19.50;;;14.75;;
19149;SDS011;9707;49.158;8.632;2023-03-01T14:53:59;15.40;;;10.75;;
19149;SDS011;9707;49.158;8.632;2023-03-01T14:56:25;18.48;;;12.68;;
19149;SDS011;9707;49.158;8.632;2023-03-01T14:58:53;14.85;;;9.82;;
19149;SDS011;9707;49.158;8.632;2023-03-01T15:01:23;13.40;;;9.32;;
19149;SDS011;9707;49.158;8.632;2023-03-01T15:03:49;17.52;;;13.15;;
19149;SDS011;9707;49.158;8.632;2023-03-01T15:06:17;18.70;;;12.63;;
19149;SDS011;9707;49.158;8.632;2023-03-01T15:08:45;14.90;;;10.85;;
19149;SDS011;9707;49.158;8.632;2023-03-01T15:13:38;19.38;;;11.60;;
19149;SDS011;9707;49.158;8.632;2023-03-01T15:18:34;12.75;;;10.00;;
19149;SDS011;9707;49.158;8.632;2023-03-01T15:21:06;15.55;;;11.80;;
19149;SDS011;9707;49.158;8.632;2023-03-01T15:23:40;17.65;;;12.10;;
19149;SDS011;9707;49.158;8.632;2023-03-01T15:26:06;19.45;;;12.05;;
19149;SDS011;9707;49.158;8.632;2023-03-01T15:28:33;11.32;;;8.00;;
19149;SDS011;9707;49.158;8.632;2023-03-01T15:33:45;20.80;;;10.85;;
19149;SDS011;9707;49.158;8.632;2023-03-01T15:47:37;14.68;;;9.95;;
19149;SDS011;9707;49.158;8.632;2023-03-01T15:50:20;13.90;;;9.60;;
19149;SDS011;9707;49.158;8.632;2023-03-01T15:55:28;16.48;;;12.02;;
19149;SDS011;9707;49.158;8.632;2023-03-01T15:58:13;12.32;;;9.43;;
19149;SDS011;9707;49.158;8.632;2023-03-01T16:00:42;17.05;;;12.68;;
19149;SDS011;9707;49.158;8.632;2023-03-01T16:03:08;15.27;;;11.70;;
19149;SDS011;9707;49.158;8.632;2023-03-01T16:05:36;15.45;;;11.35;;
19149;SDS011;9707;49.158;8.632;2023-03-01T16:08:03;17.20;;;11.32;;
19149;SDS011;9707;49.158;8.632;2023-03-01T16:10:31;16.23;;;12.02;;
19149;SDS011;9707;49.158;8.632;2023-03-01T16:12:57;15.27;;;12.25;;
19149;SDS011;9707;49.158;8.632;2023-03-01T16:15:24;14.80;;;10.20;;
19149;SDS011;9707;49.158;8.632;2023-03-01T16:17:54;14.60;;;9.77;;
19149;SDS011;9707;49.158;8.632;2023-03-01T16:20:20;18.13;;;12.05;;
19149;SDS011;9707;49.158;8.632;2023-03-01T16:22:45;40.65;;;21.63;;
19149;SDS011;9707;49.158;8.632;2023-03-01T16:25:12;21.42;;;14.40;;
19149;SDS011;9707;49.158;8.632;2023-03-01T16:27:41;15.65;;;10.55;;
19149;SDS011;9707;49.158;8.632;2023-03-01T16:30:07;15.40;;;11.35;;
19149;SDS011;9707;49.158;8.632;2023-03-01T16:32:37;13.68;;;10.75;;
19149;SDS011;9707;49.158;8.632;2023-03-01T16:35:06;15.95;;;11.32;;
19149;SDS011;9707;49.158;8.632;2023-03-01T16:37:33;16.35;;;11.73;;
19149;SDS011;9707;49.158;8.632;2023-03-01T16:40:01;13.68;;;9.70;;
19149;SDS011;9707;49.158;8.632;2023-03-01T16:42:32;15.55;;;10.88;;
19149;SDS011;9707;49.158;8.632;2023-03-01T16:44:58;14.50;;;9.50;;
19149;SDS011;9707;49.158;8.632;2023-03-01T16:47:23;15.68;;;10.85;;
19149;SDS011;9707;49.158;8.632;2023-03-01T16:49:52;14.82;;;11.32;;
19149;SDS011;9707;49.158;8.632;2023-03-01T16:52:18;17.85;;;12.02;;
19149;SDS011;9707;49.158;8.632;2023-03-01T16:54:44;15.30;;;11.10;;
19149;SDS011;9707;49.158;8.632;2023-03-01T16:57:09;15.02;;;10.32;;
19149;SDS011;9707;49.158;8.632;2023-03-01T16:59:34;16.48;;;10.77;;